Have a Safe July 4th! 

Flight Track Log - Related Links

Times and Time Zones

All times are in EST time to prevent confusion due to time zone crossing. See the AMF1019 flight status page for this flight to view local times or setup timezone preferences in your user account.

Time Position Orientation Groundspeed Altitude Reporting Facility
EST Latitude Longitude Course Direction KTS MPH feet Rate Location/Type
Tue 09:38:44 PM 37.5386 -77.3703 254° West 142 163 3,100  Level Washington Center
Tue 09:39:42 PM 37.5064 -77.4244 233° Southwest 142 163 4,600 1,576 Climbing Washington Center
Tue 09:40:42 PM 37.4703 -77.4783 230° Southwest 171 197 6,200 1,537 Climbing Washington Center
Tue 09:41:43 PM 37.4483 -77.5433 247° West 194 223 7,700 1,475 Climbing Washington Center
Tue 09:42:44 PM 37.4408 -77.6136 262° West 200 230 9,200 1,650 Climbing Washington Center
Tue 09:43:00 PM 37.5802 -77.6263 254° West  Level Estimated
Tue 09:43:43 PM 37.4294 -77.6761 257° West 200 230 11,000  Level Washington Center
Tue 09:44:43 PM 37.4136 -77.7386 252° West 200 230 12,300 1,636 Climbing Washington Center
Tue 09:45:44 PM 37.3958 -77.8061 252° West 195 224 14,300 1,714 Climbing Washington Center
Tue 09:46:42 PM 37.3822 -77.8658 254° West 189 217 15,700 1,462 Climbing Washington Center
Tue 09:47:43 PM 37.3706 -77.9178 254° West 177 204 17,200 1,180 Climbing Washington Center
Tue 09:48:44 PM 37.3611 -77.9750 258° West 172 198 18,100 1,008 Climbing Washington Center
Tue 09:49:42 PM 37.3517 -78.0319 258° West 167 192 19,200 864 Climbing Washington Center
Tue 09:50:42 PM 37.3381 -78.0839 252° West 161 185 19,800 397 Climbing Washington Center
Tue 09:51:43 PM 37.3222 -78.1461 252° West 173 199 20,000 100 Climbing Washington Center
Tue 09:52:42 PM 37.3083 -78.2133 255° West 184 212 20,000  Level Washington Center
Tue 09:53:42 PM 37.2922 -78.2781 253° West 189 217 20,000  Level Washington Center
Tue 09:54:43 PM 37.3033 -78.3386 283° West 183 211 20,000  Level Washington Center
Tue 09:55:42 PM 37.3458 -78.3897 316° Northwest 213 245 20,000  Level Washington Center
Tue 09:56:42 PM 37.3800 -78.4511 305° West 213 245 20,000  Level Washington Center
Tue 09:57:43 PM 37.4097 -78.5175 299° West 218 251 20,000  Level Washington Center
Tue 09:58:43 PM 37.4394 -78.5817 300° West 218 251 20,000  Level Washington Center
Tue 09:59:44 PM 37.4686 -78.6611 295° West 218 251 20,000  Level Washington Center
Tue 10:00:42 PM 37.4961 -78.7278 297° West 223 257 20,000  Level Washington Center
Tue 10:01:43 PM 37.5214 -78.7994 294° West 223 257 20,000  Level Washington Center
Tue 10:02:43 PM 37.5444 -78.8686 293° West 223 257 20,000  Level Washington Center
Tue 10:03:42 PM 37.5633 -78.9428 288° West 223 257 20,000  Level Washington Center
Tue 10:04:42 PM 37.5803 -79.0117 287° West 223 257 20,000  Level Washington Center
Tue 10:05:43 PM 37.6031 -79.0833 292° West 223 257 20,000  Level Washington Center
Tue 10:06:43 PM 37.6258 -79.1578 291° West 229 264 20,000  Level Washington Center
Tue 10:07:44 PM 37.6447 -79.2297 288° West 229 264 20,000  Level Washington Center
Tue 10:08:44 PM 37.6672 -79.3094 290° West 229 264 20,000  Level Washington Center
Tue 10:09:43 PM 37.6861 -79.3733 291° West 229 264 20,000  Level Washington Center
Tue 10:10:43 PM 37.7128 -79.4561 292° West 229 264 20,000  Level Washington Center
Tue 10:11:44 PM 37.7375 -79.5283 293° West 235 270 20,000  Level Washington Center
Tue 10:12:44 PM 37.7600 -79.6003 292° West 230 265 20,000  Level Washington Center
Tue 10:13:44 PM 37.7783 -79.6750 287° West 230 265 20,000  Level Washington Center
Tue 10:14:43 PM 37.7989 -79.7494 289° West 230 265 20,000  Level Washington Center
Tue 10:15:43 PM 37.8189 -79.8294 288° West 230 265 20,000  Level Washington Center
Tue 10:16:42 PM 37.8392 -79.9044 289° West 230 265 20,000  Level Washington Center
Tue 10:17:42 PM 37.8594 -79.9764 290° West 230 265 20,000  Level Washington Center
Tue 10:18:43 PM 37.8797 -80.0539 288° West 230 265 20,000  Level Washington Center
Tue 10:19:44 PM 37.8981 -80.1183 290° West 230 265 20,000  Level Washington Center
Tue 10:21:58 PM 37.9517 -80.2867 292° West 225 259 20,000  Level Indianapolis Center
Tue 10:22:58 PM 37.9739 -80.3589 291° West 224 258 20,000  Level Indianapolis Center
Tue 10:23:59 PM 37.9922 -80.4314 288° West 221 254 20,000  Level Indianapolis Center
Tue 10:25:00 PM 38.0133 -80.5103 289° West 228 262 20,000  Level Indianapolis Center
Tue 10:26:01 PM 38.0336 -80.5858 289° West 226 260 20,000  Level Indianapolis Center
Tue 10:27:02 PM 38.0531 -80.6622 288° West 227 261 20,000  Level Indianapolis Center
Tue 10:28:03 PM 38.0728 -80.7403 288° West 231 266 20,000  Level Indianapolis Center
Tue 10:29:04 PM 38.0925 -80.8156 288° West 227 261 20,000  Level Indianapolis Center
Tue 10:30:05 PM 38.1108 -80.8936 287° West 229 264 20,000  Level Indianapolis Center
Tue 10:31:06 PM 38.1297 -80.9708 287° West 231 266 20,000  Level Indianapolis Center
Tue 10:32:07 PM 38.1464 -81.0461 286° West 222 255 20,000  Level Indianapolis Center
Tue 10:33:08 PM 38.1642 -81.1236 286° West 224 258 20,000  Level Indianapolis Center
Tue 10:34:08 PM 38.1814 -81.1986 286° West 220 253 20,000  Level Indianapolis Center
Tue 10:35:09 PM 38.1961 -81.2750 284° West 222 255 20,000  Level Indianapolis Center
Tue 10:36:10 PM 38.2133 -81.3503 286° West 220 253 20,000  Level Indianapolis Center
Tue 10:37:11 PM 38.2297 -81.4272 285° West 224 258 20,000  Level Indianapolis Center
Tue 10:38:12 PM 38.2458 -81.5042 285° West 224 258 20,000  Level Indianapolis Center
Tue 10:39:13 PM 38.2631 -81.5817 286° West 226 260 20,000  Level Indianapolis Center
Tue 10:40:14 PM 38.2772 -81.6597 283° West 225 259 20,000  Level Indianapolis Center
Tue 10:41:15 PM 38.2953 -81.7542 284° West 227 261 20,000  Level Indianapolis Center
Tue 10:42:16 PM 38.3106 -81.8342 284° West 231 266 20,000  Level Indianapolis Center
Tue 10:43:17 PM 38.3342 -81.9075 292° West 223 257 20,000  Level Indianapolis Center
Tue 10:44:18 PM 38.3558 -81.9842 290° West 228 262 20,000  Level Indianapolis Center
Tue 10:45:19 PM 38.3756 -82.0603 288° West 227 261 20,000  Level Indianapolis Center
Tue 10:46:20 PM 38.3939 -82.1386 287° West 229 264 20,000  Level Indianapolis Center
Tue 10:47:21 PM 38.4125 -82.2150 287° West 225 259 20,000  Level Indianapolis Center
Tue 10:48:22 PM 38.4314 -82.2897 288° West 222 255 20,000  Level Indianapolis Center
Tue 10:49:23 PM 38.4489 -82.3647 287° West 219 252 20,000  Level Indianapolis Center
Tue 10:50:24 PM 38.4692 -82.4397 289° West 221 254 20,000  Level Indianapolis Center
Tue 10:51:25 PM 38.4867 -82.5164 286° West 220 253 20,000  Level Indianapolis Center
Tue 10:52:26 PM 38.5047 -82.5908 287° West 221 254 20,000  Level Indianapolis Center
Tue 10:53:27 PM 38.5211 -82.6667 285° West 223 257 20,000  Level Indianapolis Center
Tue 10:54:28 PM 38.5372 -82.7436 285° West 224 258 20,000  Level Indianapolis Center
Tue 10:55:29 PM 38.5544 -82.8217 286° West 226 260 20,000  Level Indianapolis Center
Tue 10:56:30 PM 38.5772 -82.9092 288° West 224 258 20,000  Level Indianapolis Center
Tue 10:57:31 PM 38.5967 -82.9869 288° West 227 261 20,000 -341 Level Indianapolis Center
Tue 10:58:33 PM 38.6186 -83.0642 290° West 230 265 19,300 -878 Descending Indianapolis Center
Tue 10:59:34 PM 38.6453 -83.1439 293° West 241 277 18,200 -689 Descending Indianapolis Center
Tue 11:00:35 PM 38.6631 -83.2164 287° West 242 278 17,900 -689 Descending Indianapolis Center
Tue 11:01:36 PM 38.6856 -83.2978 290° West 243 280 16,800 -1,033 Descending Indianapolis Center
Tue 11:02:37 PM 38.7092 -83.3778 291° West 241 277 15,800 -984 Descending Indianapolis Center
Tue 11:03:38 PM 38.7308 -83.4600 289° West 242 278 14,800 -1,082 Descending Indianapolis Center
Tue 11:04:39 PM 38.7539 -83.5597 287° West 243 280 13,600 -1,033 Descending Indianapolis Center
Tue 11:05:40 PM 38.7697 -83.6433 284° West 242 278 12,700 -934 Descending Indianapolis Center
Tue 11:06:41 PM 38.7867 -83.7264 285° West 242 278 11,700 -787 Descending Indianapolis Center
Tue 11:07:42 PM 38.8044 -83.8114 285° West 246 283 11,100 -344 Descending Indianapolis Center
Tue 11:08:43 PM 38.8233 -83.8864 288° West 225 259 11,000 -49 Descending Indianapolis Center
Tue 11:09:44 PM 38.8431 -83.9594 289° West 217 250 11,000  Level Indianapolis Center
Tue 11:10:45 PM 38.8581 -84.0353 284° West 221 254 11,000 -49 Level Indianapolis Center
Tue 11:11:46 PM 38.8644 -84.1119 276° West 217 250 10,900 -738 Descending Indianapolis Center
Tue 11:12:47 PM 38.8742 -84.1917 279° West 225 259 9,500 -1,230 Descending Indianapolis Center
Tue 11:13:48 PM 38.8867 -84.2722 281° West 229 264 8,400 -1,180 Descending Indianapolis Center
Tue 11:14:49 PM 38.9017 -84.3494 284° West 227 261 7,100 -1,475 Descending Indianapolis Center
Tue 11:15:50 PM 38.9181 -84.4211 286° West 215 247 5,400 -1,328 Descending Indianapolis Center
Tue 11:16:51 PM 38.9381 -84.5028 287° West 213 245 4,400 -1,010 Descending Indianapolis Center
Tue 11:19:18 PM 38.9667 -84.6500 284° West 146 168 1,900 -812 Descending Cincinnati TRACON
Tue 11:20:18 PM 39.0000 -84.6667 339° North 121 139 1,600 -400 Descending Cincinnati TRACON
Tue 11:21:18 PM 39.0333 -84.6667 360° North 116 133 1,100 -500 Descending Cincinnati TRACON
Tue 11:23:00 PM 39.0488 -84.6678 38° Northeast  Level Estimated

Login

Don't have an account? Register now (free) for customized features, flight alerts, and more!